Time;durP1;ratioP1;P1;durP2;ratioP2;P2;SDS_P1;SDS_P2;PMS_P1;PMS_P2;Temp;Humidity;BMP_temperature;BMP_pressure;BME280_temperature;BME280_humidity;BME280_pressure;Samples;Min_cycle;Max_cycle;Signal;HPM_P1;HPM_P2
2022/09/20 00:00:35;;;;;;;6.03;1.80;;;;;;;;;;5058342;28;20044;-76
2022/09/20 00:03:01;;;;;;;5.22;1.70;;;;;;;;;;5057824;28;20049;-76
2022/09/20 00:05:27;;;;;;;7.70;2.00;;;;;;;;;;5075194;28;20043;-76
2022/09/20 00:07:53;;;;;;;5.30;1.60;;;;;;;;;;5060926;28;20048;-76
2022/09/20 00:10:23;;;;;;;4.47;1.52;;;;;;;;;;5057410;28;20037;-76
2022/09/20 00:12:49;;;;;;;6.95;1.80;;;;;;;;;;5069633;28;20041;-76
2022/09/20 00:15:16;;;;;;;4.15;1.80;;;;;;;;;;5057707;28;20433;-76
2022/09/20 00:17:42;;;;;;;3.53;1.50;;;;;;;;;;5058442;28;20090;-77
2022/09/20 00:20:08;;;;;;;7.57;1.70;;;;;;;;;;5044351;28;20049;-76
2022/09/20 00:22:34;;;;;;;7.03;2.13;;;;;;;;;;5062765;28;20048;-76
2022/09/20 00:25:00;;;;;;;9.88;1.92;;;;;;;;;;5063920;28;20111;-76
2022/09/20 00:27:26;;;;;;;5.00;2.03;;;;;;;;;;5077878;28;20037;-76
2022/09/20 00:29:52;;;;;;;7.43;2.22;;;;;;;;;;5042852;28;20158;-76
2022/09/20 00:32:18;;;;;;;7.07;2.28;;;;;;;;;;5076099;28;20044;-76
2022/09/20 00:37:29;;;;;;;3.80;1.42;;;;;;;;;;5060247;28;20057;-76
2022/09/20 00:39:55;;;;;;;3.90;1.90;;;;;;;;;;5060390;28;20489;-76
2022/09/20 00:42:26;;;;;;;10.73;2.38;;;;;;;;;;5059718;28;20548;-76
2022/09/20 00:44:57;;;;;;;9.10;1.90;;;;;;;;;;5059969;28;20045;-76
2022/09/20 00:47:26;;;;;;;4.90;1.80;;;;;;;;;;5060524;28;20099;-76
2022/09/20 00:49:55;;;;;;;3.75;1.90;;;;;;;;;;5060071;28;20405;-76
2022/09/20 00:52:22;;;;;;;6.93;2.00;;;;;;;;;;5025792;28;22250;-76
2022/09/20 00:54:48;;;;;;;6.82;2.22;;;;;;;;;;5060683;28;20045;-76
2022/09/20 00:57:14;;;;;;;7.38;1.92;;;;;;;;;;5085781;28;20127;-77
2022/09/20 00:59:42;;;;;;;5.82;2.00;;;;;;;;;;5087937;28;20045;-76
2022/09/20 01:02:28;;;;;;;6.93;2.15;;;;;;;;;;5081938;28;20409;-76
2022/09/20 01:04:56;;;;;;;5.63;1.77;;;;;;;;;;5065034;28;20045;-76
2022/09/20 01:07:23;;;;;;;9.45;2.38;;;;;;;;;;5079665;28;20052;-76
2022/09/20 01:09:49;;;;;;;5.88;1.85;;;;;;;;;;5080016;28;20094;-76
2022/09/20 01:12:21;;;;;;;8.10;2.15;;;;;;;;;;5060783;28;20056;-76
2022/09/20 01:14:49;;;;;;;7.20;2.58;;;;;;;;;;5076380;28;20048;-76
2022/09/20 01:17:18;;;;;;;7.15;2.10;;;;;;;;;;5060854;28;20051;-76
2022/09/20 01:20:02;;;;;;;6.95;1.83;;;;;;;;;;5060372;28;20179;-76
2022/09/20 01:22:48;;;;;;;7.25;1.98;;;;;;;;;;5061441;28;20052;-76
2022/09/20 01:25:14;;;;;;;9.55;2.03;;;;;;;;;;5076493;28;20408;-76
2022/09/20 01:27:51;;;;;;;4.95;1.80;;;;;;;;;;5060223;28;20045;-76
2022/09/20 01:30:34;;;;;;;4.25;1.80;;;;;;;;;;5059587;28;20124;-76
2022/09/20 01:33:03;;;;;;;7.65;1.80;;;;;;;;;;5059773;28;20078;-76
2022/09/20 01:35:32;;;;;;;3.58;1.70;;;;;;;;;;5046698;28;20101;-76
2022/09/20 01:38:17;;;;;;;8.23;2.90;;;;;;;;;;5071111;28;20048;-76
2022/09/20 01:40:50;;;;;;;4.82;1.90;;;;;;;;;;5064541;28;20036;-76
2022/09/20 01:43:34;;;;;;;6.00;2.45;;;;;;;;;;5069890;28;20111;-76
2022/09/20 01:46:04;;;;;;;7.70;1.75;;;;;;;;;;5059269;28;20041;-76
2022/09/20 01:48:35;;;;;;;4.40;1.80;;;;;;;;;;5076940;28;20098;-76
2022/09/20 01:51:02;;;;;;;5.07;1.75;;;;;;;;;;5070883;28;20045;-76
2022/09/20 01:53:38;;;;;;;3.67;1.80;;;;;;;;;;5073225;28;20109;-76
2022/09/20 01:56:04;;;;;;;;;;;;;;;;;;5043909;28;20080;-76
2022/09/20 01:58:45;;;;;;;5.28;1.90;;;;;;;;;;5059625;28;19928;-76
2022/09/20 02:01:26;;;;;;;9.50;1.92;;;;;;;;;;5060339;28;20490;-76
2022/09/20 02:03:52;;;;;;;6.63;2.10;;;;;;;;;;5061156;28;20037;-77
2022/09/20 02:06:41;;;;;;;7.45;2.00;;;;;;;;;;5042575;28;20044;-76
2022/09/20 02:09:14;;;;;;;7.50;1.80;;;;;;;;;;4983771;28;20066;-79
2022/09/20 02:11:41;;;;;;;10.38;2.33;;;;;;;;;;4990009;28;20535;-79
2022/09/20 02:14:19;;;;;;;4.82;1.52;;;;;;;;;;4998325;28;20065;-79
2022/09/20 02:16:45;;;;;;;3.13;1.70;;;;;;;;;;4994126;28;20054;-79
2022/09/20 02:19:29;;;;;;;5.40;2.10;;;;;;;;;;4986386;28;20121;-79
2022/09/20 02:21:56;;;;;;;4.65;1.65;;;;;;;;;;4974170;28;20510;-79
2022/09/20 02:24:22;;;;;;;5.47;2.05;;;;;;;;;;4983508;28;20038;-79
2022/09/20 02:27:02;;;;;;;4.22;1.70;;;;;;;;;;4972143;28;20129;-78
2022/09/20 02:29:47;;;;;;;5.78;1.67;;;;;;;;;;4978536;28;20074;-79
2022/09/20 02:32:28;;;;;;;7.10;2.13;;;;;;;;;;4971578;28;20063;-79
2022/09/20 02:35:04;;;;;;;2.92;1.52;;;;;;;;;;4997054;28;20042;-79
2022/09/20 02:37:45;;;;;;;5.70;2.10;;;;;;;;;;4997590;28;20177;-79
2022/09/20 02:40:34;;;;;;;8.30;1.90;;;;;;;;;;4998347;28;20418;-79
2022/09/20 02:43:07;;;;;;;8.35;2.90;;;;;;;;;;4922668;29;20047;-79
2022/09/20 02:45:51;;;;;;;8.25;2.10;;;;;;;;;;4939361;28;20061;-79
2022/09/20 02:48:20;;;;;;;8.07;2.22;;;;;;;;;;4978345;28;20086;-79
2022/09/20 02:50:59;;;;;;;4.80;1.42;;;;;;;;;;4979444;28;20105;-79
2022/09/20 02:53:43;;;;;;;4.70;1.80;;;;;;;;;;4996403;28;20054;-79
2022/09/20 02:56:28;;;;;;;4.93;1.50;;;;;;;;;;4977220;28;20035;-79
2022/09/20 02:59:05;;;;;;;3.92;1.50;;;;;;;;;;4960951;28;20451;-79
2022/09/20 03:01:37;;;;;;;5.43;1.80;;;;;;;;;;4983778;28;20050;-79
2022/09/20 03:04:21;;;;;;;7.60;2.35;;;;;;;;;;4995239;28;20096;-79
2022/09/20 03:06:53;;;;;;;7.18;1.50;;;;;;;;;;4995079;28;20043;-79
2022/09/20 03:09:37;;;;;;;3.75;2.13;;;;;;;;;;4995583;28;20069;-79
2022/09/20 03:12:09;;;;;;;3.97;1.60;;;;;;;;;;4995548;28;20121;-79
2022/09/20 03:14:35;;;;;;;3.92;1.58;;;;;;;;;;4995745;28;20097;-79
2022/09/20 03:17:05;;;;;;;6.57;1.67;;;;;;;;;;4996163;28;20042;-79
2022/09/20 03:19:51;;;;;;;3.67;1.77;;;;;;;;;;4989797;28;20055;-79
2022/09/20 03:22:36;;;;;;;5.32;1.40;;;;;;;;;;5068113;28;20069;-79
2022/09/20 03:25:02;;;;;;;5.90;1.63;;;;;;;;;;5056985;28;20515;-78
2022/09/20 03:27:34;;;;;;;3.88;1.50;;;;;;;;;;5057742;28;20116;-79
2022/09/20 03:30:19;;;;;;;3.17;1.45;;;;;;;;;;5065514;28;20497;-79
2022/09/20 03:33:03;;;;;;;3.05;1.20;;;;;;;;;;5066111;28;20037;-79
2022/09/20 03:35:35;;;;;;;2.35;1.40;;;;;;;;;;5039585;28;20051;-79
2022/09/20 03:38:01;;;;;;;1.70;1.30;;;;;;;;;;5053589;28;20386;-79
2022/09/20 03:40:49;;;;;;;4.78;1.70;;;;;;;;;;5056921;28;20053;-79
2022/09/20 03:43:15;;;;;;;9.20;1.85;;;;;;;;;;5066165;28;20044;-79
2022/09/20 03:45:41;;;;;;;3.72;1.50;;;;;;;;;;5059380;28;20072;-79
2022/09/20 03:48:45;;;;;;;3.92;1.90;;;;;;;;;;5069920;28;20493;-79
2022/09/20 03:51:22;;;;;;;5.47;1.80;;;;;;;;;;4986590;28;20052;-79
2022/09/20 03:54:07;;;;;;;5.93;1.90;;;;;;;;;;4995392;28;20084;-79
2022/09/20 03:56:38;;;;;;;4.00;1.65;;;;;;;;;;4990194;28;20411;-79
2022/09/20 03:59:16;;;;;;;6.47;1.70;;;;;;;;;;4979142;28;20049;-79
2022/09/20 04:01:44;;;;;;;5.55;1.90;;;;;;;;;;4962889;28;20058;-79
2022/09/20 04:04:28;;;;;;;6.15;1.80;;;;;;;;;;4962628;28;20159;-79
2022/09/20 04:06:55;;;;;;;5.75;1.70;;;;;;;;;;4978104;28;20122;-80
2022/09/20 04:09:39;;;;;;;6.32;1.50;;;;;;;;;;4978151;28;20046;-79
2022/09/20 04:12:10;;;;;;;3.92;2.08;;;;;;;;;;4959015;28;20110;-79
2022/09/20 04:14:43;;;;;;;4.40;1.90;;;;;;;;;;4958313;29;20138;-79
2022/09/20 04:17:18;;;;;;;5.18;2.15;;;;;;;;;;4958545;29;20039;-79
2022/09/20 04:19:47;;;;;;;8.30;2.10;;;;;;;;;;4958623;29;20538;-79
2022/09/20 04:22:17;;;;;;;7.15;1.98;;;;;;;;;;5022608;28;20058;-79
2022/09/20 04:24:53;;;;;;;7.82;2.10;;;;;;;;;;5040458;28;20045;-79
2022/09/20 04:27:19;;;;;;;8.00;2.10;;;;;;;;;;5064581;28;20047;-79
2022/09/20 04:29:55;;;;;;;6.38;2.00;;;;;;;;;;5067321;28;20056;-79
2022/09/20 04:32:21;;;;;;;;;;;;;;;;;;5064267;28;20041;-79
2022/09/20 04:37:42;;;;;;;9.43;2.50;;;;;;;;;;5057796;28;20961;-79
2022/09/20 04:40:14;;;;;;;9.35;2.58;;;;;;;;;;5057877;28;20037;-80
2022/09/20 04:42:59;;;;;;;7.65;2.00;;;;;;;;;;5023937;28;20443;-79
2022/09/20 04:45:36;;;;;;;4.85;2.00;;;;;;;;;;5057541;28;20449;-80
2022/09/20 04:48:17;;;;;;;10.55;2.17;;;;;;;;;;5057528;28;20132;-80
2022/09/20 04:50:46;;;;;;;7.38;2.47;;;;;;;;;;5057740;28;20056;-80
2022/09/20 04:53:32;;;;;;;5.55;1.80;;;;;;;;;;5057779;28;20045;-79
2022/09/20 04:56:17;;;;;;;3.50;1.55;;;;;;;;;;5043550;28;20126;-79
2022/09/20 04:58:46;;;;;;;5.40;1.73;;;;;;;;;;5057584;28;20161;-79
2022/09/20 05:01:18;;;;;;;4.35;1.75;;;;;;;;;;5066802;28;20047;-79
2022/09/20 05:03:56;;;;;;;4.40;1.50;;;;;;;;;;5064526;28;20531;-79
2022/09/20 05:06:32;;;;;;;2.38;1.50;;;;;;;;;;5044344;28;20527;-79
2022/09/20 05:09:22;;;;;;;4.47;1.60;;;;;;;;;;5043043;28;20045;-79
2022/09/20 05:12:15;;;;;;;5.93;2.10;;;;;;;;;;5049414;28;20061;-79
2022/09/20 05:14:47;;;;;;;8.43;2.47;;;;;;;;;;5041487;28;20041;-79
2022/09/20 05:17:19;;;;;;;5.38;1.80;;;;;;;;;;5070065;28;20496;-79
2022/09/20 05:19:54;;;;;;;3.50;1.85;;;;;;;;;;5075118;28;20488;-79
2022/09/20 05:22:39;;;;;;;3.75;1.77;;;;;;;;;;5058974;28;20052;-80
2022/09/20 05:25:24;;;;;;;4.70;2.05;;;;;;;;;;5056744;28;20052;-80
2022/09/20 05:28:02;;;;;;;6.55;2.10;;;;;;;;;;5067854;28;20049;-79
2022/09/20 05:30:36;;;;;;;3.45;1.85;;;;;;;;;;5077168;28;20119;-79
2022/09/20 05:33:14;;;;;;;9.25;2.20;;;;;;;;;;5059577;28;20570;-78
2022/09/20 05:35:48;;;;;;;4.00;1.90;;;;;;;;;;5065192;28;20045;-80
2022/09/20 05:38:23;;;;;;;4.47;2.10;;;;;;;;;;5061237;28;20048;-80
2022/09/20 05:41:12;;;;;;;7.97;2.23;;;;;;;;;;5059053;28;20528;-80
2022/09/20 05:43:46;;;;;;;5.88;2.03;;;;;;;;;;5058531;28;20447;-80
2022/09/20 05:46:30;;;;;;;4.80;1.73;;;;;;;;;;5059597;28;20045;-80
2022/09/20 05:49:03;;;;;;;3.92;1.60;;;;;;;;;;5066183;28;20078;-80
2022/09/20 05:51:39;;;;;;;5.15;1.88;;;;;;;;;;5064670;28;20029;-80
2022/09/20 05:54:17;;;;;;;4.78;1.92;;;;;;;;;;5068298;28;20402;-80
2022/09/20 05:56:58;;;;;;;7.07;1.80;;;;;;;;;;5059752;28;20049;-80
2022/09/20 05:59:24;;;;;;;6.30;2.08;;;;;;;;;;5059525;28;20037;-80
2022/09/20 06:02:08;;;;;;;7.45;1.80;;;;;;;;;;5065690;28;20052;-80
2022/09/20 06:04:34;;;;;;;7.55;2.00;;;;;;;;;;5078581;28;20033;-81
2022/09/20 06:07:13;;;;;;;3.92;1.70;;;;;;;;;;5069222;28;20045;-81
2022/09/20 06:09:42;;;;;;;5.63;1.98;;;;;;;;;;5072149;28;20045;-82
2022/09/20 06:12:27;;;;;;;4.53;1.90;;;;;;;;;;5063747;28;20041;-80
2022/09/20 06:15:02;;;;;;;3.65;1.50;;;;;;;;;;5061769;28;20045;-79
2022/09/20 06:17:34;;;;;;;4.28;1.80;;;;;;;;;;5074107;28;20053;-79
2022/09/20 06:20:19;;;;;;;4.68;1.70;;;;;;;;;;5072612;28;20048;-79
2022/09/20 06:22:47;;;;;;;5.10;1.80;;;;;;;;;;5062662;28;20447;-79
2022/09/20 06:25:22;;;;;;;5.20;1.98;;;;;;;;;;5062138;28;20535;-80
2022/09/20 06:27:57;;;;;;;5.57;2.13;;;;;;;;;;5079416;28;20048;-79
2022/09/20 06:30:33;;;;;;;3.63;1.67;;;;;;;;;;5060999;28;20412;-80
2022/09/20 06:33:00;;;;;;;3.27;1.57;;;;;;;;;;5079190;28;20041;-80
2022/09/20 06:35:36;;;;;;;6.75;2.05;;;;;;;;;;5065667;28;20487;-80
2022/09/20 06:43:39;;;;;;;5.95;1.70;;;;;;;;;;5076875;28;20420;-84
2022/09/20 06:46:06;;;;;;;5.63;1.50;;;;;;;;;;5071809;28;20053;-80
2022/09/20 06:48:32;;;;;;;7.00;1.77;;;;;;;;;;5064157;28;20056;-80
2022/09/20 06:51:00;;;;;;;4.18;1.55;;;;;;;;;;5058773;28;20049;-80
2022/09/20 06:53:31;;;;;;;4.65;1.73;;;;;;;;;;5073916;28;20120;-80
2022/09/20 06:55:57;;;;;;;5.85;1.92;;;;;;;;;;5072980;28;20044;-80
2022/09/20 06:58:30;;;;;;;6.22;2.10;;;;;;;;;;5071074;28;20448;-81
2022/09/20 07:00:56;;;;;;;4.90;1.58;;;;;;;;;;5072287;28;20052;-80
2022/09/20 07:03:58;;;;;;;6.72;1.67;;;;;;;;;;5053569;28;20045;-80
2022/09/20 07:06:28;;;;;;;5.13;1.75;;;;;;;;;;5042611;28;20153;-82
2022/09/20 07:08:54;;;;;;;7.97;1.60;;;;;;;;;;5022386;28;20049;-81
2022/09/20 07:11:21;;;;;;;3.80;1.60;;;;;;;;;;5067179;28;20057;-81
2022/09/20 07:13:58;;;;;;;5.93;1.75;;;;;;;;;;5053392;28;20076;-81
2022/09/20 07:16:25;;;;;;;5.60;2.10;;;;;;;;;;5053454;28;20049;-82
2022/09/20 07:18:51;;;;;;;6.07;2.00;;;;;;;;;;5055360;28;20053;-81
2022/09/20 07:21:27;;;;;;;8.25;2.30;;;;;;;;;;5057710;28;20041;-81
2022/09/20 07:23:53;;;;;;;7.13;1.70;;;;;;;;;;5073030;28;20154;-81
2022/09/20 07:26:19;;;;;;;6.45;1.88;;;;;;;;;;5068956;28;20041;-81
2022/09/20 07:28:46;;;;;;;6.97;1.90;;;;;;;;;;5057209;28;20036;-82
2022/09/20 07:31:12;;;;;;;5.55;1.83;;;;;;;;;;5069494;28;20093;-81
2022/09/20 07:33:38;;;;;;;5.38;1.90;;;;;;;;;;5053195;28;20045;-81
2022/09/20 07:36:04;;;;;;;5.47;1.98;;;;;;;;;;5055696;28;20091;-81
2022/09/20 07:38:30;;;;;;;5.50;2.22;;;;;;;;;;5072023;28;20059;-81
2022/09/20 07:41:01;;;;;;;7.25;1.80;;;;;;;;;;5020326;28;20057;-81
2022/09/20 07:43:27;;;;;;;4.25;1.75;;;;;;;;;;5035878;28;20048;-82
2022/09/20 07:45:54;;;;;;;4.85;1.67;;;;;;;;;;5035483;28;20037;-82
2022/09/20 07:48:25;;;;;;;6.18;1.60;;;;;;;;;;5043770;28;20119;-81
2022/09/20 07:50:56;;;;;;;5.47;2.20;;;;;;;;;;5071192;28;20044;-82
2022/09/20 07:53:44;;;;;;;5.65;1.70;;;;;;;;;;5043155;28;20049;-81
2022/09/20 07:56:18;;;;;;;5.03;1.42;;;;;;;;;;5057059;28;20107;-81
2022/09/20 07:58:44;;;;;;;6.03;1.50;;;;;;;;;;5067994;28;20044;-81
2022/09/20 08:01:12;;;;;;;2.72;1.40;;;;;;;;;;5068439;28;20032;-81
2022/09/20 08:03:45;;;;;;;2.95;1.38;;;;;;;;;;5047867;28;20211;-81
2022/09/20 08:06:17;;;;;;;2.90;1.42;;;;;;;;;;5062065;28;20120;-81
2022/09/20 08:08:59;;;;;;;5.32;1.40;;;;;;;;;;5061679;28;20067;-80
2022/09/20 08:11:51;;;;;;;4.78;1.40;;;;;;;;;;5064494;28;20064;-81
2022/09/20 08:17:29;;;;;;;6.15;2.03;;;;;;;;;;5012697;28;20045;-81
2022/09/20 08:20:05;;;;;;;3.92;1.80;;;;;;;;;;5021633;28;20049;-82
2022/09/20 08:22:31;;;;;;;11.23;1.80;;;;;;;;;;5011775;28;20153;-79
2022/09/20 08:25:22;;;;;;;6.30;1.58;;;;;;;;;;5010463;28;20062;-81
2022/09/20 08:28:48;;;;;;;4.75;1.60;;;;;;;;;;4970851;28;20054;-81
2022/09/20 08:32:13;;;;;;;;;;;;;;;;;;;;;
2022/09/20 08:41:51;;;;;;;;;;;;;;;;;;;;;
2022/09/20 08:48:06;;;;;;;5.07;1.45;;;;;;;;;;4940581;28;20055;-81
2022/09/20 08:54:09;;;;;;;4.22;1.58;;;;;;;;;;4977869;28;20054;-81
2022/09/20 08:56:53;;;;;;;5.50;1.75;;;;;;;;;;5008331;28;20038;-81
2022/09/20 08:59:57;;;;;;;5.47;1.45;;;;;;;;;;4984380;28;20077;-82
2022/09/20 09:02:23;;;;;;;5.20;1.70;;;;;;;;;;4988150;28;20046;-82
2022/09/20 09:04:52;;;;;;;8.63;2.08;;;;;;;;;;4991667;28;20089;-82
2022/09/20 09:07:23;;;;;;;4.25;1.45;;;;;;;;;;5006012;28;20050;-81
2022/09/20 09:09:50;;;;;;;3.65;1.50;;;;;;;;;;5002889;28;20051;-81
2022/09/20 09:12:22;;;;;;;4.70;1.40;;;;;;;;;;4986146;28;20053;-81
2022/09/20 09:14:53;;;;;;;5.20;1.80;;;;;;;;;;5021436;28;20104;-82
2022/09/20 09:17:34;;;;;;;3.97;1.80;;;;;;;;;;4997949;28;20469;-82
2022/09/20 09:20:14;;;;;;;3.22;1.45;;;;;;;;;;5065485;28;20041;-81
2022/09/20 09:22:46;;;;;;;3.03;1.50;;;;;;;;;;5062986;28;20071;-80
2022/09/20 09:25:12;;;;;;;4.10;1.40;;;;;;;;;;5065381;28;20056;-82
2022/09/20 09:34:37;;;;;;;8.05;1.70;;;;;;;;;;5060874;28;20090;-82
2022/09/20 09:37:09;;;;;;;6.28;1.70;;;;;;;;;;5059397;28;20049;-82
2022/09/20 09:39:36;;;;;;;7.32;1.90;;;;;;;;;;5059359;28;20072;-83
2022/09/20 09:42:23;;;;;;;5.32;2.22;;;;;;;;;;5022546;28;20057;-82
2022/09/20 09:44:52;;;;;;;5.97;2.13;;;;;;;;;;5058006;28;20055;-82
2022/09/20 09:47:27;;;;;;;4.53;1.90;;;;;;;;;;5063169;28;20094;-82
2022/09/20 09:49:58;;;;;;;6.95;2.30;;;;;;;;;;5058946;28;20059;-82
2022/09/20 09:52:26;;;;;;;6.65;2.03;;;;;;;;;;5035394;28;20492;-82
2022/09/20 09:55:00;;;;;;;5.47;1.73;;;;;;;;;;5064762;28;20094;-83
2022/09/20 09:57:41;;;;;;;5.50;2.00;;;;;;;;;;5076457;28;20055;-83
2022/09/20 10:00:11;;;;;;;4.60;1.85;;;;;;;;;;5068030;28;20095;-83
2022/09/20 10:02:49;;;;;;;8.43;2.08;;;;;;;;;;5075124;28;20051;-82
2022/09/20 10:05:27;;;;;;;5.32;2.03;;;;;;;;;;5075976;28;20049;-81
2022/09/20 10:08:09;;;;;;;5.60;1.77;;;;;;;;;;5078873;28;20047;-82
2022/09/20 10:10:52;;;;;;;5.53;1.50;;;;;;;;;;5074869;28;20044;-80
2022/09/20 10:13:27;;;;;;;7.88;1.90;;;;;;;;;;5071982;28;20083;-83
2022/09/20 10:15:53;;;;;;;4.18;1.85;;;;;;;;;;5064712;28;20041;-81
2022/09/20 10:18:25;;;;;;;3.90;2.08;;;;;;;;;;5070258;28;20045;-80
2022/09/20 10:21:00;;;;;;;7.15;1.90;;;;;;;;;;5055009;28;20048;-81
2022/09/20 10:23:26;;;;;;;6.18;1.80;;;;;;;;;;5058381;28;20036;-79
2022/09/20 10:25:58;;;;;;;6.35;1.50;;;;;;;;;;5062868;28;20059;-78
2022/09/20 10:28:33;;;;;;;4.05;1.35;;;;;;;;;;5071859;28;20047;-83
2022/09/20 10:31:02;;;;;;;5.97;1.65;;;;;;;;;;5065108;28;20045;-80
2022/09/20 10:33:40;;;;;;;6.95;1.60;;;;;;;;;;5055346;28;20053;-82
2022/09/20 10:36:06;;;;;;;3.93;1.50;;;;;;;;;;5055115;28;20073;-82
2022/09/20 10:38:35;;;;;;;5.20;1.42;;;;;;;;;;5054822;28;20416;-82
2022/09/20 10:43:58;;;;;;;4.60;1.52;;;;;;;;;;5054466;28;20053;-82
2022/09/20 10:46:27;;;;;;;4.90;1.80;;;;;;;;;;5054317;28;20060;-83
2022/09/20 10:49:02;;;;;;;3.85;1.45;;;;;;;;;;5058771;28;20040;-83
2022/09/20 10:51:43;;;;;;;3.85;1.30;;;;;;;;;;5037503;28;20045;-83
2022/09/20 10:54:15;;;;;;;4.72;2.03;;;;;;;;;;5054021;28;20532;-82
2022/09/20 10:56:48;;;;;;;4.30;1.38;;;;;;;;;;5053997;28;20041;-81
2022/09/20 10:59:29;;;;;;;2.58;1.73;;;;;;;;;;5055173;28;20040;-82
2022/09/20 11:02:14;;;;;;;4.90;1.45;;;;;;;;;;5053813;28;20103;-83
2022/09/20 11:04:58;;;;;;;3.88;1.30;;;;;;;;;;5054305;28;20120;-81
2022/09/20 11:07:25;;;;;;;2.92;1.38;;;;;;;;;;5055064;28;20123;-83
2022/09/20 11:10:06;;;;;;;3.40;1.17;;;;;;;;;;5053971;28;20045;-83
2022/09/20 11:12:41;;;;;;;4.38;1.35;;;;;;;;;;5054888;28;20056;-81
2022/09/20 11:15:20;;;;;;;15.47;2.17;;;;;;;;;;5053614;28;20068;-82
2022/09/20 11:18:08;;;;;;;4.25;2.20;;;;;;;;;;5053364;28;21023;-81
2022/09/20 11:20:37;;;;;;;3.70;1.48;;;;;;;;;;5053815;28;20120;-82
2022/09/20 11:23:11;;;;;;;3.45;1.50;;;;;;;;;;5047811;28;20155;-82
2022/09/20 11:25:52;;;;;;;3.42;1.40;;;;;;;;;;5063048;28;20076;-82
2022/09/20 11:28:27;;;;;;;5.70;1.58;;;;;;;;;;5069065;28;20505;-82
2022/09/20 11:31:01;;;;;;;3.60;1.67;;;;;;;;;;5072839;28;20044;-82
2022/09/20 11:33:42;;;;;;;1.58;1.30;;;;;;;;;;5065799;28;20037;-82
2022/09/20 11:36:13;;;;;;;3.33;1.35;;;;;;;;;;5062619;28;20045;-83
2022/09/20 11:38:47;;;;;;;5.18;2.00;;;;;;;;;;5058079;28;20504;-82
2022/09/20 11:41:33;;;;;;;3.72;1.45;;;;;;;;;;5054101;28;20069;-82
2022/09/20 11:44:06;;;;;;;4.72;1.85;;;;;;;;;;5053285;28;20524;-82
2022/09/20 11:46:51;;;;;;;2.97;1.30;;;;;;;;;;5055201;28;20045;-82
2022/09/20 11:49:43;;;;;;;3.40;1.60;;;;;;;;;;5072330;28;20056;-82
2022/09/20 11:52:09;;;;;;;6.00;1.60;;;;;;;;;;5057491;28;20060;-82
2022/09/20 11:54:51;;;;;;;5.90;1.33;;;;;;;;;;5035595;28;20041;-82
2022/09/20 11:57:19;;;;;;;3.60;1.42;;;;;;;;;;5053394;28;20048;-82
2022/09/20 12:00:06;;;;;;;4.13;1.45;;;;;;;;;;5053751;28;20099;-82
2022/09/20 12:02:35;;;;;;;4.65;1.73;;;;;;;;;;5036283;28;20056;-82
2022/09/20 12:05:03;;;;;;;3.28;1.50;;;;;;;;;;5035469;28;20056;-82
2022/09/20 12:07:33;;;;;;;2.80;1.40;;;;;;;;;;5052827;28;20471;-82
2022/09/20 12:10:01;;;;;;;4.80;1.60;;;;;;;;;;5035565;28;20124;-82
2022/09/20 12:12:32;;;;;;;6.65;2.42;;;;;;;;;;5035142;28;20049;-82
2022/09/20 12:15:00;;;;;;;3.70;1.30;;;;;;;;;;5054224;28;20045;-81
2022/09/20 12:17:45;;;;;;;7.63;1.60;;;;;;;;;;5056995;28;20080;-83
2022/09/20 12:20:29;;;;;;;3.75;1.83;;;;;;;;;;5039080;28;20041;-83
2022/09/20 12:23:16;;;;;;;4.38;1.75;;;;;;;;;;5057643;28;20041;-82
2022/09/20 12:25:59;;;;;;;4.78;1.58;;;;;;;;;;5038898;28;20040;-82
2022/09/20 12:28:41;;;;;;;4.70;1.65;;;;;;;;;;5056842;28;20084;-82
2022/09/20 12:31:24;;;;;;;2.67;1.42;;;;;;;;;;5056728;28;20048;-83
2022/09/20 12:33:56;;;;;;;4.38;1.30;;;;;;;;;;5056606;28;20049;-82
2022/09/20 12:36:23;;;;;;;2.67;1.10;;;;;;;;;;5062118;28;20106;-82
2022/09/20 12:39:02;;;;;;;2.65;1.40;;;;;;;;;;5076502;28;20052;-83
2022/09/20 12:41:28;;;;;;;5.68;1.75;;;;;;;;;;5060453;28;20045;-82
2022/09/20 12:43:54;;;;;;;5.95;1.88;;;;;;;;;;5038833;28;20128;-82
2022/09/20 12:46:21;;;;;;;4.05;1.67;;;;;;;;;;5056436;28;20124;-82
2022/09/20 12:48:47;;;;;;;5.22;1.85;;;;;;;;;;5056338;28;20049;-82
2022/09/20 12:54:12;;;;;;;5.65;2.13;;;;;;;;;;5056875;28;20041;-82
2022/09/20 12:56:40;;;;;;;4.53;2.10;;;;;;;;;;5075088;28;20051;-82
2022/09/20 12:59:19;;;;;;;5.65;1.90;;;;;;;;;;5075860;28;20463;-82
2022/09/20 13:01:46;;;;;;;5.53;1.80;;;;;;;;;;5076379;28;20052;-82
2022/09/20 13:04:31;;;;;;;7.03;1.70;;;;;;;;;;5075710;28;20439;-82
2022/09/20 13:07:21;;;;;;;2.90;1.60;;;;;;;;;;5076055;28;20110;-82
2022/09/20 13:09:48;;;;;;;7.18;2.08;;;;;;;;;;5056939;28;20049;-82
2022/09/20 13:12:15;;;;;;;4.05;1.52;;;;;;;;;;5056159;28;20045;-82
2022/09/20 13:14:41;;;;;;;7.50;2.03;;;;;;;;;;5055875;28;20067;-82
2022/09/20 13:17:24;;;;;;;5.60;2.03;;;;;;;;;;5055815;28;20091;-82
2022/09/20 13:19:50;;;;;;;5.43;1.85;;;;;;;;;;5055756;28;20049;-82
2022/09/20 13:22:25;;;;;;;4.78;1.60;;;;;;;;;;5055883;28;20044;-82
2022/09/20 13:24:59;;;;;;;5.97;2.00;;;;;;;;;;5046536;28;20045;-82
2022/09/20 13:27:29;;;;;;;7.85;1.70;;;;;;;;;;5074972;28;20040;-82
2022/09/20 13:29:55;;;;;;;3.58;1.60;;;;;;;;;;5075849;28;20123;-82
2022/09/20 13:32:25;;;;;;;6.90;2.25;;;;;;;;;;5075368;28;20114;-82
2022/09/20 13:35:12;;;;;;;7.97;1.90;;;;;;;;;;5075216;28;20048;-82
2022/09/20 13:37:41;;;;;;;5.95;1.95;;;;;;;;;;5075452;28;20044;-82
2022/09/20 13:40:16;;;;;;;6.03;2.33;;;;;;;;;;5044287;28;20086;-82
2022/09/20 13:42:42;;;;;;;6.68;2.45;;;;;;;;;;5055368;28;20462;-82
2022/09/20 13:45:12;;;;;;;8.60;1.95;;;;;;;;;;5055217;28;20088;-82
2022/09/20 13:47:41;;;;;;;5.80;1.80;;;;;;;;;;5055842;28;20124;-82
2022/09/20 13:50:16;;;;;;;5.80;1.90;;;;;;;;;;5054919;28;20056;-82
2022/09/20 13:52:46;;;;;;;8.93;2.08;;;;;;;;;;5055395;28;20045;-82
2022/09/20 13:55:26;;;;;;;5.00;1.75;;;;;;;;;;5055398;28;20119;-82
2022/09/20 13:57:53;;;;;;;8.18;2.47;;;;;;;;;;5055104;28;20049;-82
2022/09/20 14:00:19;;;;;;;8.32;2.30;;;;;;;;;;5054738;28;20393;-82
2022/09/20 14:02:47;;;;;;;9.43;2.13;;;;;;;;;;5062693;28;20044;-82
2022/09/20 14:05:16;;;;;;;6.35;1.73;;;;;;;;;;5074857;28;20393;-83
2022/09/20 14:07:47;;;;;;;3.08;1.77;;;;;;;;;;5074655;28;20056;-83
2022/09/20 14:10:33;;;;;;;5.90;1.90;;;;;;;;;;5073986;28;20041;-82
2022/09/20 14:13:01;;;;;;;8.35;2.03;;;;;;;;;;5054766;28;20416;-83
2022/09/20 14:15:37;;;;;;;7.95;2.45;;;;;;;;;;5055793;28;20405;-82
2022/09/20 14:18:05;;;;;;;5.13;1.85;;;;;;;;;;5057769;28;20396;-83
2022/09/20 14:20:32;;;;;;;4.70;1.92;;;;;;;;;;5040033;28;20048;-82
2022/09/20 14:22:58;;;;;;;5.75;1.80;;;;;;;;;;5074451;28;20056;-83
2022/09/20 14:25:28;;;;;;;6.50;2.05;;;;;;;;;;5074284;28;20049;-83
2022/09/20 14:28:06;;;;;;;6.00;1.88;;;;;;;;;;5074591;28;20131;-83
2022/09/20 14:30:36;;;;;;;6.35;1.65;;;;;;;;;;5060874;28;20047;-84
2022/09/20 14:33:03;;;;;;;6.38;1.75;;;;;;;;;;5059876;28;20063;-82
2022/09/20 14:35:29;;;;;;;4.78;1.60;;;;;;;;;;5036894;28;20407;-85
2022/09/20 14:37:59;;;;;;;4.75;1.45;;;;;;;;;;5054752;28;20135;-80
2022/09/20 14:40:26;;;;;;;4.28;1.65;;;;;;;;;;5053753;28;20045;-84
2022/09/20 14:42:56;;;;;;;3.05;1.80;;;;;;;;;;5054187;28;20069;-83
2022/09/20 14:45:41;;;;;;;4.95;1.50;;;;;;;;;;5072545;28;20056;-84
2022/09/20 14:48:10;;;;;;;6.47;1.90;;;;;;;;;;5053903;28;20045;-84
2022/09/20 14:50:36;;;;;;;5.88;1.88;;;;;;;;;;5054246;28;20037;-84
2022/09/20 14:53:05;;;;;;;3.00;1.50;;;;;;;;;;5035957;28;20045;-84
2022/09/20 14:55:32;;;;;;;5.63;1.85;;;;;;;;;;5053980;28;20041;-84
2022/09/20 14:58:04;;;;;;;1.85;1.20;;;;;;;;;;5053802;28;20041;-84
2022/09/20 15:00:30;;;;;;;4.82;1.65;;;;;;;;;;5053801;28;20049;-84
2022/09/20 15:03:04;;;;;;;3.83;1.30;;;;;;;;;;5053415;28;20128;-83
2022/09/20 15:05:30;;;;;;;3.67;1.42;;;;;;;;;;5064077;28;20064;-84
2022/09/20 15:07:56;;;;;;;4.15;1.30;;;;;;;;;;5053370;28;20044;-84
2022/09/20 15:10:23;;;;;;;3.08;1.05;;;;;;;;;;5053673;28;20125;-83
2022/09/20 15:12:49;;;;;;;4.03;1.48;;;;;;;;;;5073216;28;20525;-84
2022/09/20 15:15:17;;;;;;;3.22;1.33;;;;;;;;;;5079276;28;20382;-83
2022/09/20 15:17:44;;;;;;;4.85;1.40;;;;;;;;;;5061644;28;20064;-83
2022/09/20 15:20:19;;;;;;;2.83;1.40;;;;;;;;;;5058403;28;20077;-84
2022/09/20 15:22:45;;;;;;;3.85;1.38;;;;;;;;;;5054660;28;20051;-84
2022/09/20 15:25:13;;;;;;;3.63;1.67;;;;;;;;;;5054268;28;20045;-83
2022/09/20 15:27:43;;;;;;;5.03;1.60;;;;;;;;;;5072397;28;20048;-83
2022/09/20 15:30:09;;;;;;;3.50;1.52;;;;;;;;;;5055674;28;20492;-83
2022/09/20 15:32:36;;;;;;;3.55;1.40;;;;;;;;;;5055503;28;20058;-81
2022/09/20 15:35:02;;;;;;;4.53;2.08;;;;;;;;;;5056051;28;20511;-83
2022/09/20 15:37:28;;;;;;;4.20;1.70;;;;;;;;;;5056772;28;20103;-83
2022/09/20 15:39:54;;;;;;;3.60;1.40;;;;;;;;;;5054075;28;20037;-83
2022/09/20 15:42:22;;;;;;;4.57;1.50;;;;;;;;;;5073359;28;20385;-84
2022/09/20 15:44:50;;;;;;;3.97;1.27;;;;;;;;;;5073074;28;20408;-83
2022/09/20 15:47:16;;;;;;;3.42;1.75;;;;;;;;;;5073637;28;20037;-83
2022/09/20 15:49:45;;;;;;;3.90;1.50;;;;;;;;;;5055171;28;20186;-84
2022/09/20 15:52:12;;;;;;;4.03;1.30;;;;;;;;;;5021514;28;20053;-84
2022/09/20 15:54:38;;;;;;;2.38;1.60;;;;;;;;;;5047809;28;20048;-83
2022/09/20 15:57:04;;;;;;;4.40;1.40;;;;;;;;;;5056146;28;20076;-82
2022/09/20 15:59:33;;;;;;;3.25;1.63;;;;;;;;;;5056510;28;20045;-82
2022/09/20 16:01:59;;;;;;;4.28;1.58;;;;;;;;;;5039226;28;20428;-82
2022/09/20 16:04:28;;;;;;;6.05;2.13;;;;;;;;;;5020018;28;20136;-82